sensor_id;sensor_type;location;lat;lon;timestamp;P1;durP1;ratioP1;P2;durP2;ratioP2
59042;SDS011;44826;51.596;5.624;2023-08-17T00:02:26;3.70;;;1.40;;
59042;SDS011;44826;51.596;5.624;2023-08-17T00:04:51;3.75;;;1.33;;
59042;SDS011;44826;51.596;5.624;2023-08-17T00:07:16;2.33;;;1.25;;
59042;SDS011;44826;51.596;5.624;2023-08-17T00:09:42;2.20;;;1.30;;
59042;SDS011;44826;51.596;5.624;2023-08-17T00:12:07;3.25;;;1.30;;
59042;SDS011;44826;51.596;5.624;2023-08-17T00:14:33;2.70;;;1.20;;
59042;SDS011;44826;51.596;5.624;2023-08-17T00:16:58;3.25;;;1.27;;
59042;SDS011;44826;51.596;5.624;2023-08-17T00:19:23;2.55;;;1.27;;
59042;SDS011;44826;51.596;5.624;2023-08-17T00:21:49;1.70;;;1.25;;
59042;SDS011;44826;51.596;5.624;2023-08-17T00:24:14;1.65;;;1.10;;
59042;SDS011;44826;51.596;5.624;2023-08-17T00:26:39;2.42;;;1.40;;
59042;SDS011;44826;51.596;5.624;2023-08-17T00:29:05;2.83;;;1.27;;
59042;SDS011;44826;51.596;5.624;2023-08-17T00:31:30;3.20;;;1.20;;
59042;SDS011;44826;51.596;5.624;2023-08-17T00:33:55;3.75;;;1.30;;
59042;SDS011;44826;51.596;5.624;2023-08-17T00:36:21;2.33;;;1.20;;
59042;SDS011;44826;51.596;5.624;2023-08-17T00:38:46;3.58;;;1.30;;
59042;SDS011;44826;51.596;5.624;2023-08-17T00:41:11;2.05;;;1.30;;
59042;SDS011;44826;51.596;5.624;2023-08-17T00:43:37;1.77;;;1.25;;
59042;SDS011;44826;51.596;5.624;2023-08-17T00:46:02;3.83;;;1.17;;
59042;SDS011;44826;51.596;5.624;2023-08-17T00:48:27;2.60;;;1.38;;
59042;SDS011;44826;51.596;5.624;2023-08-17T00:50:54;3.45;;;1.40;;
59042;SDS011;44826;51.596;5.624;2023-08-17T00:53:21;3.50;;;1.30;;
59042;SDS011;44826;51.596;5.624;2023-08-17T00:55:47;2.22;;;1.33;;
59042;SDS011;44826;51.596;5.624;2023-08-17T00:58:13;4.00;;;1.50;;
59042;SDS011;44826;51.596;5.624;2023-08-17T01:00:39;2.58;;;1.42;;
59042;SDS011;44826;51.596;5.624;2023-08-17T01:03:04;4.45;;;1.33;;
59042;SDS011;44826;51.596;5.624;2023-08-17T01:05:29;3.70;;;1.40;;
59042;SDS011;44826;51.596;5.624;2023-08-17T01:07:57;2.60;;;1.40;;
59042;SDS011;44826;51.596;5.624;2023-08-17T01:10:23;3.22;;;1.40;;
59042;SDS011;44826;51.596;5.624;2023-08-17T01:13:05;3.72;;;1.60;;
59042;SDS011;44826;51.596;5.624;2023-08-17T01:15:44;4.15;;;1.75;;
59042;SDS011;44826;51.596;5.624;2023-08-17T01:18:17;2.90;;;1.50;;
59042;SDS011;44826;51.596;5.624;2023-08-17T01:20:52;2.40;;;1.45;;
59042;SDS011;44826;51.596;5.624;2023-08-17T01:23:18;2.67;;;1.45;;
59042;SDS011;44826;51.596;5.624;2023-08-17T01:25:43;2.80;;;1.38;;
59042;SDS011;44826;51.596;5.624;2023-08-17T01:28:09;2.55;;;1.40;;
59042;SDS011;44826;51.596;5.624;2023-08-17T01:30:47;3.78;;;1.58;;
59042;SDS011;44826;51.596;5.624;2023-08-17T01:33:22;3.00;;;1.30;;
59042;SDS011;44826;51.596;5.624;2023-08-17T01:38:38;3.15;;;1.50;;
59042;SDS011;44826;51.596;5.624;2023-08-17T01:41:05;2.95;;;1.60;;
59042;SDS011;44826;51.596;5.624;2023-08-17T01:43:37;2.67;;;1.42;;
59042;SDS011;44826;51.596;5.624;2023-08-17T01:46:03;4.07;;;1.70;;
59042;SDS011;44826;51.596;5.624;2023-08-17T01:48:28;3.40;;;1.58;;
59042;SDS011;44826;51.596;5.624;2023-08-17T01:50:54;3.28;;;1.60;;
59042;SDS011;44826;51.596;5.624;2023-08-17T01:53:19;2.53;;;1.45;;
59042;SDS011;44826;51.596;5.624;2023-08-17T01:55:44;2.65;;;1.58;;
59042;SDS011;44826;51.596;5.624;2023-08-17T01:58:09;4.95;;;1.60;;
59042;SDS011;44826;51.596;5.624;2023-08-17T02:00:35;2.88;;;1.70;;
59042;SDS011;44826;51.596;5.624;2023-08-17T02:03:00;2.60;;;1.58;;
59042;SDS011;44826;51.596;5.624;2023-08-17T02:05:25;3.80;;;1.50;;
59042;SDS011;44826;51.596;5.624;2023-08-17T02:07:53;3.30;;;1.70;;
59042;SDS011;44826;51.596;5.624;2023-08-17T02:10:18;2.47;;;1.50;;
59042;SDS011;44826;51.596;5.624;2023-08-17T02:12:43;4.03;;;1.90;;
59042;SDS011;44826;51.596;5.624;2023-08-17T02:15:09;3.58;;;1.60;;
59042;SDS011;44826;51.596;5.624;2023-08-17T02:17:34;2.42;;;1.50;;
59042;SDS011;44826;51.596;5.624;2023-08-17T02:19:59;3.15;;;1.65;;
59042;SDS011;44826;51.596;5.624;2023-08-17T02:22:25;2.45;;;1.50;;
59042;SDS011;44826;51.596;5.624;2023-08-17T02:24:50;4.63;;;1.52;;
59042;SDS011;44826;51.596;5.624;2023-08-17T02:27:15;2.40;;;1.30;;
59042;SDS011;44826;51.596;5.624;2023-08-17T02:29:41;3.97;;;1.50;;
59042;SDS011;44826;51.596;5.624;2023-08-17T02:32:06;4.28;;;1.67;;
59042;SDS011;44826;51.596;5.624;2023-08-17T02:34:31;3.78;;;1.40;;
59042;SDS011;44826;51.596;5.624;2023-08-17T02:36:56;2.78;;;1.30;;
59042;SDS011;44826;51.596;5.624;2023-08-17T02:39:22;2.90;;;1.30;;
59042;SDS011;44826;51.596;5.624;2023-08-17T02:41:47;2.78;;;1.40;;
59042;SDS011;44826;51.596;5.624;2023-08-17T02:44:14;3.38;;;1.48;;
59042;SDS011;44826;51.596;5.624;2023-08-17T02:46:40;2.65;;;1.25;;
59042;SDS011;44826;51.596;5.624;2023-08-17T02:49:05;2.78;;;1.35;;
59042;SDS011;44826;51.596;5.624;2023-08-17T02:51:30;3.35;;;1.33;;
59042;SDS011;44826;51.596;5.624;2023-08-17T02:53:55;2.85;;;1.30;;
59042;SDS011;44826;51.596;5.624;2023-08-17T02:56:21;3.30;;;1.30;;
59042;SDS011;44826;51.596;5.624;2023-08-17T02:58:46;2.33;;;1.38;;
59042;SDS011;44826;51.596;5.624;2023-08-17T03:01:11;3.13;;;1.40;;
59042;SDS011;44826;51.596;5.624;2023-08-17T03:03:36;3.97;;;1.40;;
59042;SDS011;44826;51.596;5.624;2023-08-17T03:06:02;2.70;;;1.30;;
59042;SDS011;44826;51.596;5.624;2023-08-17T03:08:27;3.40;;;1.50;;
59042;SDS011;44826;51.596;5.624;2023-08-17T03:10:53;3.00;;;1.40;;
59042;SDS011;44826;51.596;5.624;2023-08-17T03:13:18;2.75;;;1.40;;
59042;SDS011;44826;51.596;5.624;2023-08-17T03:15:44;2.08;;;1.30;;
59042;SDS011;44826;51.596;5.624;2023-08-17T03:18:09;3.22;;;1.40;;
59042;SDS011;44826;51.596;5.624;2023-08-17T03:20:34;2.95;;;1.20;;
59042;SDS011;44826;51.596;5.624;2023-08-17T03:22:59;3.10;;;1.40;;
59042;SDS011;44826;51.596;5.624;2023-08-17T03:25:25;3.42;;;1.45;;
59042;SDS011;44826;51.596;5.624;2023-08-17T03:27:50;3.20;;;1.38;;
59042;SDS011;44826;51.596;5.624;2023-08-17T03:30:15;2.70;;;1.33;;
59042;SDS011;44826;51.596;5.624;2023-08-17T03:32:41;2.60;;;1.35;;
59042;SDS011;44826;51.596;5.624;2023-08-17T03:35:06;4.60;;;1.38;;
59042;SDS011;44826;51.596;5.624;2023-08-17T03:37:32;3.28;;;1.23;;
59042;SDS011;44826;51.596;5.624;2023-08-17T03:39:57;3.03;;;1.38;;
59042;SDS011;44826;51.596;5.624;2023-08-17T03:42:22;2.38;;;1.60;;
59042;SDS011;44826;51.596;5.624;2023-08-17T03:44:48;2.83;;;1.30;;
59042;SDS011;44826;51.596;5.624;2023-08-17T03:47:13;2.58;;;1.05;;
59042;SDS011;44826;51.596;5.624;2023-08-17T03:49:39;3.10;;;1.40;;
59042;SDS011;44826;51.596;5.624;2023-08-17T03:52:04;2.50;;;1.35;;
59042;SDS011;44826;51.596;5.624;2023-08-17T03:54:30;2.72;;;1.40;;
59042;SDS011;44826;51.596;5.624;2023-08-17T03:56:55;3.80;;;1.35;;
59042;SDS011;44826;51.596;5.624;2023-08-17T03:59:21;3.60;;;1.30;;
59042;SDS011;44826;51.596;5.624;2023-08-17T04:01:46;2.45;;;1.23;;
59042;SDS011;44826;51.596;5.624;2023-08-17T04:04:11;4.40;;;1.30;;
59042;SDS011;44826;51.596;5.624;2023-08-17T04:06:36;3.17;;;1.20;;
59042;SDS011;44826;51.596;5.624;2023-08-17T04:09:04;2.03;;;1.23;;
59042;SDS011;44826;51.596;5.624;2023-08-17T04:11:29;3.92;;;1.40;;
59042;SDS011;44826;51.596;5.624;2023-08-17T04:13:55;3.10;;;1.27;;
59042;SDS011;44826;51.596;5.624;2023-08-17T04:16:20;3.00;;;1.35;;
59042;SDS011;44826;51.596;5.624;2023-08-17T04:18:45;3.03;;;1.33;;
59042;SDS011;44826;51.596;5.624;2023-08-17T04:21:10;1.48;;;1.20;;
59042;SDS011;44826;51.596;5.624;2023-08-17T04:23:36;2.47;;;1.30;;
59042;SDS011;44826;51.596;5.624;2023-08-17T04:26:01;3.67;;;1.70;;
59042;SDS011;44826;51.596;5.624;2023-08-17T04:28:26;2.40;;;1.23;;
59042;SDS011;44826;51.596;5.624;2023-08-17T04:30:51;2.38;;;1.30;;
59042;SDS011;44826;51.596;5.624;2023-08-17T04:33:17;2.97;;;1.30;;
59042;SDS011;44826;51.596;5.624;2023-08-17T04:35:42;3.85;;;1.45;;
59042;SDS011;44826;51.596;5.624;2023-08-17T04:38:11;3.28;;;1.40;;
59042;SDS011;44826;51.596;5.624;2023-08-17T04:40:36;4.40;;;1.30;;
59042;SDS011;44826;51.596;5.624;2023-08-17T04:43:02;4.15;;;1.50;;
59042;SDS011;44826;51.596;5.624;2023-08-17T04:45:27;2.60;;;1.30;;
59042;SDS011;44826;51.596;5.624;2023-08-17T04:47:53;2.90;;;1.52;;
59042;SDS011;44826;51.596;5.624;2023-08-17T04:50:18;5.55;;;1.70;;
59042;SDS011;44826;51.596;5.624;2023-08-17T04:52:43;4.07;;;1.40;;
59042;SDS011;44826;51.596;5.624;2023-08-17T04:55:09;3.60;;;1.58;;
59042;SDS011;44826;51.596;5.624;2023-08-17T04:57:35;2.50;;;1.63;;
59042;SDS011;44826;51.596;5.624;2023-08-17T05:00:00;3.17;;;1.40;;
59042;SDS011;44826;51.596;5.624;2023-08-17T05:02:25;2.95;;;1.48;;
59042;SDS011;44826;51.596;5.624;2023-08-17T05:04:51;2.78;;;1.50;;
59042;SDS011;44826;51.596;5.624;2023-08-17T05:07:16;4.88;;;1.73;;
59042;SDS011;44826;51.596;5.624;2023-08-17T05:09:41;2.75;;;1.63;;
59042;SDS011;44826;51.596;5.624;2023-08-17T05:12:06;3.60;;;1.60;;
59042;SDS011;44826;51.596;5.624;2023-08-17T05:14:32;2.78;;;1.60;;
59042;SDS011;44826;51.596;5.624;2023-08-17T05:16:57;1.90;;;1.40;;
59042;SDS011;44826;51.596;5.624;2023-08-17T05:19:23;4.20;;;1.60;;
59042;SDS011;44826;51.596;5.624;2023-08-17T05:21:48;3.55;;;1.55;;
59042;SDS011;44826;51.596;5.624;2023-08-17T05:24:15;4.70;;;1.60;;
59042;SDS011;44826;51.596;5.624;2023-08-17T05:26:40;2.95;;;1.58;;
59042;SDS011;44826;51.596;5.624;2023-08-17T05:29:06;4.03;;;1.50;;
59042;SDS011;44826;51.596;5.624;2023-08-17T05:31:31;4.20;;;1.90;;
59042;SDS011;44826;51.596;5.624;2023-08-17T05:33:56;3.15;;;1.45;;
59042;SDS011;44826;51.596;5.624;2023-08-17T05:36:21;4.25;;;1.60;;
59042;SDS011;44826;51.596;5.624;2023-08-17T05:38:47;2.55;;;1.35;;
59042;SDS011;44826;51.596;5.624;2023-08-17T05:41:12;3.58;;;1.65;;
59042;SDS011;44826;51.596;5.624;2023-08-17T05:43:37;3.88;;;1.60;;
59042;SDS011;44826;51.596;5.624;2023-08-17T05:46:02;2.45;;;1.50;;
59042;SDS011;44826;51.596;5.624;2023-08-17T05:48:28;2.95;;;1.48;;
59042;SDS011;44826;51.596;5.624;2023-08-17T05:50:55;3.55;;;1.60;;
59042;SDS011;44826;51.596;5.624;2023-08-17T05:53:21;3.47;;;1.48;;
59042;SDS011;44826;51.596;5.624;2023-08-17T05:55:46;3.40;;;1.63;;
59042;SDS011;44826;51.596;5.624;2023-08-17T05:58:11;3.97;;;1.90;;
59042;SDS011;44826;51.596;5.624;2023-08-17T06:00:38;3.63;;;1.95;;
59042;SDS011;44826;51.596;5.624;2023-08-17T06:03:03;3.20;;;1.80;;
59042;SDS011;44826;51.596;5.624;2023-08-17T06:05:29;3.67;;;1.52;;
59042;SDS011;44826;51.596;5.624;2023-08-17T06:07:55;3.67;;;1.70;;
59042;SDS011;44826;51.596;5.624;2023-08-17T06:10:21;3.65;;;1.85;;
59042;SDS011;44826;51.596;5.624;2023-08-17T06:12:50;5.47;;;1.63;;
59042;SDS011;44826;51.596;5.624;2023-08-17T06:15:19;3.55;;;1.73;;
59042;SDS011;44826;51.596;5.624;2023-08-17T06:17:44;3.53;;;1.83;;
59042;SDS011;44826;51.596;5.624;2023-08-17T06:20:10;3.53;;;1.60;;
59042;SDS011;44826;51.596;5.624;2023-08-17T06:22:37;3.65;;;1.63;;
59042;SDS011;44826;51.596;5.624;2023-08-17T06:25:02;5.93;;;1.77;;
59042;SDS011;44826;51.596;5.624;2023-08-17T06:27:30;3.40;;;1.63;;
59042;SDS011;44826;51.596;5.624;2023-08-17T06:29:55;4.07;;;1.45;;
59042;SDS011;44826;51.596;5.624;2023-08-17T06:32:20;4.85;;;1.67;;
59042;SDS011;44826;51.596;5.624;2023-08-17T06:34:45;3.30;;;1.60;;
59042;SDS011;44826;51.596;5.624;2023-08-17T06:37:11;2.55;;;1.60;;
59042;SDS011;44826;51.596;5.624;2023-08-17T06:39:36;3.28;;;1.50;;
59042;SDS011;44826;51.596;5.624;2023-08-17T06:42:01;3.42;;;1.65;;
59042;SDS011;44826;51.596;5.624;2023-08-17T06:44:27;4.53;;;1.58;;
59042;SDS011;44826;51.596;5.624;2023-08-17T06:46:52;3.72;;;2.08;;
59042;SDS011;44826;51.596;5.624;2023-08-17T06:49:17;3.42;;;1.60;;
59042;SDS011;44826;51.596;5.624;2023-08-17T06:51:42;3.30;;;1.60;;
59042;SDS011;44826;51.596;5.624;2023-08-17T06:54:08;5.75;;;2.00;;
59042;SDS011;44826;51.596;5.624;2023-08-17T06:56:34;2.95;;;1.70;;
59042;SDS011;44826;51.596;5.624;2023-08-17T06:58:59;4.07;;;1.77;;
59042;SDS011;44826;51.596;5.624;2023-08-17T07:01:25;2.83;;;1.58;;
59042;SDS011;44826;51.596;5.624;2023-08-17T07:03:50;3.20;;;1.63;;
59042;SDS011;44826;51.596;5.624;2023-08-17T07:06:15;3.03;;;1.70;;
59042;SDS011;44826;51.596;5.624;2023-08-17T07:08:40;3.22;;;1.55;;
59042;SDS011;44826;51.596;5.624;2023-08-17T07:11:06;2.08;;;1.40;;
59042;SDS011;44826;51.596;5.624;2023-08-17T07:13:33;2.70;;;1.50;;
59042;SDS011;44826;51.596;5.624;2023-08-17T07:15:59;2.60;;;1.67;;
59042;SDS011;44826;51.596;5.624;2023-08-17T07:18:24;3.78;;;1.70;;
59042;SDS011;44826;51.596;5.624;2023-08-17T07:20:49;3.80;;;1.77;;
59042;SDS011;44826;51.596;5.624;2023-08-17T07:23:17;3.33;;;1.70;;
59042;SDS011;44826;51.596;5.624;2023-08-17T07:25:42;5.25;;;1.88;;
59042;SDS011;44826;51.596;5.624;2023-08-17T07:28:07;5.20;;;1.80;;
59042;SDS011;44826;51.596;5.624;2023-08-17T07:30:32;3.55;;;1.67;;
59042;SDS011;44826;51.596;5.624;2023-08-17T07:32:58;4.60;;;1.70;;
59042;SDS011;44826;51.596;5.624;2023-08-17T07:35:23;3.85;;;1.67;;
59042;SDS011;44826;51.596;5.624;2023-08-17T07:37:48;3.10;;;1.50;;
59042;SDS011;44826;51.596;5.624;2023-08-17T07:40:14;4.40;;;1.75;;
59042;SDS011;44826;51.596;5.624;2023-08-17T07:42:39;3.03;;;1.75;;
59042;SDS011;44826;51.596;5.624;2023-08-17T07:45:04;4.97;;;1.98;;
59042;SDS011;44826;51.596;5.624;2023-08-17T07:47:33;6.35;;;1.80;;
59042;SDS011;44826;51.596;5.624;2023-08-17T07:49:59;3.78;;;1.98;;
59042;SDS011;44826;51.596;5.624;2023-08-17T07:52:24;2.83;;;1.75;;
59042;SDS011;44826;51.596;5.624;2023-08-17T07:54:50;3.05;;;1.63;;
59042;SDS011;44826;51.596;5.624;2023-08-17T07:57:15;3.90;;;1.58;;
59042;SDS011;44826;51.596;5.624;2023-08-17T07:59:40;2.85;;;1.70;;
59042;SDS011;44826;51.596;5.624;2023-08-17T08:02:05;3.38;;;1.73;;
59042;SDS011;44826;51.596;5.624;2023-08-17T08:04:31;2.65;;;1.77;;
59042;SDS011;44826;51.596;5.624;2023-08-17T08:06:56;3.72;;;1.55;;
59042;SDS011;44826;51.596;5.624;2023-08-17T08:09:24;2.90;;;1.58;;
59042;SDS011;44826;51.596;5.624;2023-08-17T08:11:49;2.50;;;1.70;;
59042;SDS011;44826;51.596;5.624;2023-08-17T08:14:14;4.28;;;1.83;;
59042;SDS011;44826;51.596;5.624;2023-08-17T08:16:40;3.78;;;1.60;;
59042;SDS011;44826;51.596;5.624;2023-08-17T08:19:05;3.85;;;1.88;;
59042;SDS011;44826;51.596;5.624;2023-08-17T08:21:30;2.67;;;1.70;;
59042;SDS011;44826;51.596;5.624;2023-08-17T08:23:56;3.95;;;1.90;;
59042;SDS011;44826;51.596;5.624;2023-08-17T08:26:21;3.17;;;1.55;;
59042;SDS011;44826;51.596;5.624;2023-08-17T08:28:46;3.05;;;1.88;;
59042;SDS011;44826;51.596;5.624;2023-08-17T08:31:12;3.97;;;1.75;;
59042;SDS011;44826;51.596;5.624;2023-08-17T08:33:37;3.55;;;1.95;;
59042;SDS011;44826;51.596;5.624;2023-08-17T08:36:02;4.63;;;2.00;;
59042;SDS011;44826;51.596;5.624;2023-08-17T08:38:27;4.70;;;2.22;;
59042;SDS011;44826;51.596;5.624;2023-08-17T08:40:54;3.65;;;1.88;;
59042;SDS011;44826;51.596;5.624;2023-08-17T08:43:19;7.22;;;2.38;;
59042;SDS011;44826;51.596;5.624;2023-08-17T08:45:44;4.00;;;1.95;;
59042;SDS011;44826;51.596;5.624;2023-08-17T08:48:10;4.50;;;2.13;;
59042;SDS011;44826;51.596;5.624;2023-08-17T08:50:36;4.18;;;2.03;;
59042;SDS011;44826;51.596;5.624;2023-08-17T08:53:04;4.38;;;2.20;;
59042;SDS011;44826;51.596;5.624;2023-08-17T08:55:38;5.60;;;2.35;;
59042;SDS011;44826;51.596;5.624;2023-08-17T08:58:25;5.63;;;2.63;;
59042;SDS011;44826;51.596;5.624;2023-08-17T09:00:52;4.13;;;2.50;;
59042;SDS011;44826;51.596;5.624;2023-08-17T09:03:18;3.33;;;2.30;;
59042;SDS011;44826;51.596;5.624;2023-08-17T09:05:48;6.13;;;2.72;;
59042;SDS011;44826;51.596;5.624;2023-08-17T09:08:15;6.10;;;2.42;;
59042;SDS011;44826;51.596;5.624;2023-08-17T09:10:43;4.20;;;2.40;;
59042;SDS011;44826;51.596;5.624;2023-08-17T09:13:09;4.93;;;2.60;;
59042;SDS011;44826;51.596;5.624;2023-08-17T09:15:37;3.95;;;2.60;;
59042;SDS011;44826;51.596;5.624;2023-08-17T09:18:03;4.40;;;2.50;;
59042;SDS011;44826;51.596;5.624;2023-08-17T09:20:35;4.25;;;2.58;;
59042;SDS011;44826;51.596;5.624;2023-08-17T09:23:05;6.80;;;2.95;;
59042;SDS011;44826;51.596;5.624;2023-08-17T09:25:36;5.13;;;2.72;;
59042;SDS011;44826;51.596;5.624;2023-08-17T09:28:07;5.97;;;2.58;;
59042;SDS011;44826;51.596;5.624;2023-08-17T09:33:17;4.93;;;2.90;;
59042;SDS011;44826;51.596;5.624;2023-08-17T09:35:43;4.75;;;2.95;;
59042;SDS011;44826;51.596;5.624;2023-08-17T09:38:09;4.72;;;2.72;;
59042;SDS011;44826;51.596;5.624;2023-08-17T09:40:34;5.40;;;2.63;;
59042;SDS011;44826;51.596;5.624;2023-08-17T09:42:59;5.45;;;3.10;;
59042;SDS011;44826;51.596;5.624;2023-08-17T09:45:32;6.57;;;3.10;;
59042;SDS011;44826;51.596;5.624;2023-08-17T09:47:58;5.45;;;2.90;;
59042;SDS011;44826;51.596;5.624;2023-08-17T09:50:25;5.10;;;2.78;;
59042;SDS011;44826;51.596;5.624;2023-08-17T09:52:53;5.90;;;2.97;;
59042;SDS011;44826;51.596;5.624;2023-08-17T09:55:22;6.28;;;3.00;;
59042;SDS011;44826;51.596;5.624;2023-08-17T09:57:49;7.53;;;3.50;;
59042;SDS011;44826;51.596;5.624;2023-08-17T10:00:15;7.93;;;3.55;;
59042;SDS011;44826;51.596;5.624;2023-08-17T10:02:41;7.30;;;3.65;;
59042;SDS011;44826;51.596;5.624;2023-08-17T10:05:10;8.38;;;4.13;;
59042;SDS011;44826;51.596;5.624;2023-08-17T10:07:37;6.57;;;4.15;;
59042;SDS011;44826;51.596;5.624;2023-08-17T10:10:06;6.57;;;3.90;;
59042;SDS011;44826;51.596;5.624;2023-08-17T10:12:33;8.40;;;4.00;;
59042;SDS011;44826;51.596;5.624;2023-08-17T10:15:10;9.10;;;4.00;;
59042;SDS011;44826;51.596;5.624;2023-08-17T10:17:39;7.78;;;3.90;;
59042;SDS011;44826;51.596;5.624;2023-08-17T10:20:20;7.30;;;3.90;;
59042;SDS011;44826;51.596;5.624;2023-08-17T10:25:21;8.65;;;3.88;;
59042;SDS011;44826;51.596;5.624;2023-08-17T10:27:48;8.45;;;3.88;;
59042;SDS011;44826;51.596;5.624;2023-08-17T10:30:16;7.65;;;3.85;;
59042;SDS011;44826;51.596;5.624;2023-08-17T10:32:42;8.07;;;3.95;;
59042;SDS011;44826;51.596;5.624;2023-08-17T10:35:10;7.25;;;3.60;;
59042;SDS011;44826;51.596;5.624;2023-08-17T10:37:35;6.40;;;3.90;;
59042;SDS011;44826;51.596;5.624;2023-08-17T10:40:03;5.18;;;3.72;;
59042;SDS011;44826;51.596;5.624;2023-08-17T10:42:33;7.82;;;3.78;;
59042;SDS011;44826;51.596;5.624;2023-08-17T10:45:00;7.15;;;3.95;;
59042;SDS011;44826;51.596;5.624;2023-08-17T10:47:29;5.93;;;3.40;;
59042;SDS011;44826;51.596;5.624;2023-08-17T10:52:44;6.22;;;3.60;;
59042;SDS011;44826;51.596;5.624;2023-08-17T10:55:13;6.18;;;3.53;;
59042;SDS011;44826;51.596;5.624;2023-08-17T10:57:39;6.68;;;3.78;;
59042;SDS011;44826;51.596;5.624;2023-08-17T11:02:35;7.18;;;4.13;;
59042;SDS011;44826;51.596;5.624;2023-08-17T11:05:02;7.80;;;3.78;;
59042;SDS011;44826;51.596;5.624;2023-08-17T11:07:38;6.95;;;4.05;;
59042;SDS011;44826;51.596;5.624;2023-08-17T11:10:11;7.38;;;4.05;;
59042;SDS011;44826;51.596;5.624;2023-08-17T11:12:45;8.40;;;4.95;;
59042;SDS011;44826;51.596;5.624;2023-08-17T11:15:11;7.05;;;4.13;;
59042;SDS011;44826;51.596;5.624;2023-08-17T11:17:36;9.80;;;4.40;;
59042;SDS011;44826;51.596;5.624;2023-08-17T11:20:02;6.63;;;4.03;;
59042;SDS011;44826;51.596;5.624;2023-08-17T11:22:31;7.03;;;3.67;;
59042;SDS011;44826;51.596;5.624;2023-08-17T11:24:56;7.70;;;4.25;;
59042;SDS011;44826;51.596;5.624;2023-08-17T11:27:23;8.25;;;4.80;;
59042;SDS011;44826;51.596;5.624;2023-08-17T11:29:49;6.70;;;4.97;;
59042;SDS011;44826;51.596;5.624;2023-08-17T11:32:17;7.25;;;4.90;;
59042;SDS011;44826;51.596;5.624;2023-08-17T11:34:43;9.13;;;5.40;;
59042;SDS011;44826;51.596;5.624;2023-08-17T11:37:11;8.30;;;4.90;;
59042;SDS011;44826;51.596;5.624;2023-08-17T11:39:37;9.77;;;4.95;;
59042;SDS011;44826;51.596;5.624;2023-08-17T11:42:02;6.90;;;4.65;;
59042;SDS011;44826;51.596;5.624;2023-08-17T11:44:28;7.97;;;5.13;;
59042;SDS011;44826;51.596;5.624;2023-08-17T11:46:53;7.22;;;4.50;;
59042;SDS011;44826;51.596;5.624;2023-08-17T11:49:18;8.13;;;4.97;;
59042;SDS011;44826;51.596;5.624;2023-08-17T11:51:44;8.05;;;5.20;;
59042;SDS011;44826;51.596;5.624;2023-08-17T11:54:12;8.30;;;5.13;;
59042;SDS011;44826;51.596;5.624;2023-08-17T11:56:37;7.40;;;4.70;;
59042;SDS011;44826;51.596;5.624;2023-08-17T11:59:09;8.65;;;5.47;;
59042;SDS011;44826;51.596;5.624;2023-08-17T12:01:39;8.40;;;5.30;;
59042;SDS011;44826;51.596;5.624;2023-08-17T12:04:05;7.13;;;4.75;;
59042;SDS011;44826;51.596;5.624;2023-08-17T12:06:31;7.15;;;5.07;;
59042;SDS011;44826;51.596;5.624;2023-08-17T12:08:57;7.63;;;4.57;;
59042;SDS011;44826;51.596;5.624;2023-08-17T12:11:25;6.75;;;4.78;;
59042;SDS011;44826;51.596;5.624;2023-08-17T12:13:51;7.40;;;4.70;;
59042;SDS011;44826;51.596;5.624;2023-08-17T12:16:18;8.15;;;4.82;;
59042;SDS011;44826;51.596;5.624;2023-08-17T12:18:47;8.93;;;5.35;;
59042;SDS011;44826;51.596;5.624;2023-08-17T12:21:19;8.45;;;5.20;;
59042;SDS011;44826;51.596;5.624;2023-08-17T12:23:46;8.57;;;5.25;;
59042;SDS011;44826;51.596;5.624;2023-08-17T12:26:17;8.98;;;5.00;;
59042;SDS011;44826;51.596;5.624;2023-08-17T12:28:44;8.63;;;5.47;;
59042;SDS011;44826;51.596;5.624;2023-08-17T12:31:09;8.63;;;5.50;;
59042;SDS011;44826;51.596;5.624;2023-08-17T12:33:37;8.98;;;5.50;;
59042;SDS011;44826;51.596;5.624;2023-08-17T12:36:02;7.82;;;5.53;;
59042;SDS011;44826;51.596;5.624;2023-08-17T12:38:29;9.82;;;5.97;;
59042;SDS011;44826;51.596;5.624;2023-08-17T12:40:54;8.15;;;5.68;;
59042;SDS011;44826;51.596;5.624;2023-08-17T12:43:19;9.20;;;5.30;;
59042;SDS011;44826;51.596;5.624;2023-08-17T12:45:45;8.30;;;5.72;;
59042;SDS011;44826;51.596;5.624;2023-08-17T12:48:10;7.60;;;5.32;;
59042;SDS011;44826;51.596;5.624;2023-08-17T12:50:35;8.07;;;5.15;;
59042;SDS011;44826;51.596;5.624;2023-08-17T12:53:01;8.85;;;5.68;;
59042;SDS011;44826;51.596;5.624;2023-08-17T12:55:26;8.60;;;6.15;;
59042;SDS011;44826;51.596;5.624;2023-08-17T12:57:51;7.43;;;5.93;;
59042;SDS011;44826;51.596;5.624;2023-08-17T13:00:17;7.07;;;5.20;;
59042;SDS011;44826;51.596;5.624;2023-08-17T13:02:42;7.47;;;5.32;;
59042;SDS011;44826;51.596;5.624;2023-08-17T13:05:09;7.78;;;5.50;;
59042;SDS011;44826;51.596;5.624;2023-08-17T13:07:34;7.82;;;5.57;;
59042;SDS011;44826;51.596;5.624;2023-08-17T13:10:00;8.77;;;5.60;;
59042;SDS011;44826;51.596;5.624;2023-08-17T13:12:25;9.98;;;5.95;;
59042;SDS011;44826;51.596;5.624;2023-08-17T13:14:58;8.43;;;5.95;;
59042;SDS011;44826;51.596;5.624;2023-08-17T13:17:25;8.85;;;5.68;;
59042;SDS011;44826;51.596;5.624;2023-08-17T13:19:51;9.20;;;6.28;;
59042;SDS011;44826;51.596;5.624;2023-08-17T13:22:16;9.13;;;5.55;;
59042;SDS011;44826;51.596;5.624;2023-08-17T13:24:41;8.77;;;5.53;;
59042;SDS011;44826;51.596;5.624;2023-08-17T13:27:06;9.95;;;5.80;;
59042;SDS011;44826;51.596;5.624;2023-08-17T13:29:32;8.43;;;5.97;;
59042;SDS011;44826;51.596;5.624;2023-08-17T13:31:57;9.43;;;5.55;;
59042;SDS011;44826;51.596;5.624;2023-08-17T13:34:22;7.97;;;5.82;;
59042;SDS011;44826;51.596;5.624;2023-08-17T13:36:48;8.73;;;5.80;;
59042;SDS011;44826;51.596;5.624;2023-08-17T13:39:13;8.57;;;5.45;;
59042;SDS011;44826;51.596;5.624;2023-08-17T13:41:38;9.45;;;5.90;;
59042;SDS011;44826;51.596;5.624;2023-08-17T13:44:05;9.20;;;6.07;;
59042;SDS011;44826;51.596;5.624;2023-08-17T13:46:33;7.70;;;6.03;;
59042;SDS011;44826;51.596;5.624;2023-08-17T13:48:58;9.02;;;5.97;;
59042;SDS011;44826;51.596;5.624;2023-08-17T13:51:24;11.20;;;6.25;;
59042;SDS011;44826;51.596;5.624;2023-08-17T13:53:51;9.30;;;5.32;;
59042;SDS011;44826;51.596;5.624;2023-08-17T13:56:16;8.25;;;6.05;;
59042;SDS011;44826;51.596;5.624;2023-08-17T13:58:42;9.85;;;5.60;;
59042;SDS011;44826;51.596;5.624;2023-08-17T14:01:07;9.93;;;6.07;;
59042;SDS011;44826;51.596;5.624;2023-08-17T14:03:32;7.90;;;5.60;;
59042;SDS011;44826;51.596;5.624;2023-08-17T14:05:58;9.90;;;5.88;;
59042;SDS011;44826;51.596;5.624;2023-08-17T14:08:23;11.00;;;6.47;;
59042;SDS011;44826;51.596;5.624;2023-08-17T14:10:48;8.95;;;6.32;;
59042;SDS011;44826;51.596;5.624;2023-08-17T14:13:13;9.73;;;6.00;;
59042;SDS011;44826;51.596;5.624;2023-08-17T14:15:39;8.48;;;6.15;;
59042;SDS011;44826;51.596;5.624;2023-08-17T14:18:04;9.73;;;6.20;;
59042;SDS011;44826;51.596;5.624;2023-08-17T14:20:30;8.60;;;6.85;;
59042;SDS011;44826;51.596;5.624;2023-08-17T14:22:58;9.98;;;6.78;;
59042;SDS011;44826;51.596;5.624;2023-08-17T14:25:43;9.20;;;6.20;;
59042;SDS011;44826;51.596;5.624;2023-08-17T14:28:09;8.57;;;6.28;;
59042;SDS011;44826;51.596;5.624;2023-08-17T14:30:34;9.73;;;6.53;;
59042;SDS011;44826;51.596;5.624;2023-08-17T14:32:59;8.43;;;6.32;;
59042;SDS011;44826;51.596;5.624;2023-08-17T14:35:26;8.90;;;6.32;;
59042;SDS011;44826;51.596;5.624;2023-08-17T14:37:51;8.45;;;6.00;;
59042;SDS011;44826;51.596;5.624;2023-08-17T14:40:17;9.32;;;5.93;;
59042;SDS011;44826;51.596;5.624;2023-08-17T14:42:42;8.68;;;6.05;;
59042;SDS011;44826;51.596;5.624;2023-08-17T14:45:07;8.40;;;6.07;;
59042;SDS011;44826;51.596;5.624;2023-08-17T14:47:33;8.38;;;5.90;;
59042;SDS011;44826;51.596;5.624;2023-08-17T14:49:59;10.45;;;6.18;;
59042;SDS011;44826;51.596;5.624;2023-08-17T14:52:24;6.60;;;5.45;;
59042;SDS011;44826;51.596;5.624;2023-08-17T14:54:51;8.43;;;5.93;;
59042;SDS011;44826;51.596;5.624;2023-08-17T14:57:16;7.53;;;6.03;;